sensor_id;sensor_type;location;lat;lon;timestamp;temperature;humidity
52387;DHT22;38317;53.084;6.960;2023-08-24T02:43:26;16.50;99.90
52387;DHT22;38317;53.084;6.960;2023-08-24T02:45:53;16.40;99.90
52387;DHT22;38317;53.084;6.960;2023-08-24T02:48:19;16.20;99.90
52387;DHT22;38317;53.084;6.960;2023-08-24T02:50:47;16.10;99.90
52387;DHT22;38317;53.084;6.960;2023-08-24T02:53:13;16.10;99.90
52387;DHT22;38317;53.084;6.960;2023-08-24T02:55:39;16.10;99.90
52387;DHT22;38317;53.084;6.960;2023-08-24T02:58:05;16.10;99.90
52387;DHT22;38317;53.084;6.960;2023-08-24T03:00:30;16.10;99.90
52387;DHT22;38317;53.084;6.960;2023-08-24T03:02:56;16.10;99.90
52387;DHT22;38317;53.084;6.960;2023-08-24T03:05:22;16.00;99.90
52387;DHT22;38317;53.084;6.960;2023-08-24T03:07:47;16.00;99.90
52387;DHT22;38317;53.084;6.960;2023-08-24T03:10:13;16.00;99.90
52387;DHT22;38317;53.084;6.960;2023-08-24T03:12:39;16.00;99.90
52387;DHT22;38317;53.084;6.960;2023-08-24T03:15:05;16.00;99.90
52387;DHT22;38317;53.084;6.960;2023-08-24T03:17:32;15.90;99.90
52387;DHT22;38317;53.084;6.960;2023-08-24T03:19:57;15.90;99.90
52387;DHT22;38317;53.084;6.960;2023-08-24T03:22:23;15.90;99.90
52387;DHT22;38317;53.084;6.960;2023-08-24T03:24:49;15.90;99.90
52387;DHT22;38317;53.084;6.960;2023-08-24T03:27:14;15.90;99.90
52387;DHT22;38317;53.084;6.960;2023-08-24T03:29:40;15.90;99.90
52387;DHT22;38317;53.084;6.960;2023-08-24T03:32:06;15.90;99.90
52387;DHT22;38317;53.084;6.960;2023-08-24T03:34:31;15.90;99.90
52387;DHT22;38317;53.084;6.960;2023-08-24T03:36:57;15.90;99.90
52387;DHT22;38317;53.084;6.960;2023-08-24T03:39:23;15.90;99.90
52387;DHT22;38317;53.084;6.960;2023-08-24T03:41:49;15.90;99.90
52387;DHT22;38317;53.084;6.960;2023-08-24T03:44:14;15.90;99.90
52387;DHT22;38317;53.084;6.960;2023-08-24T03:46:40;15.90;99.90
52387;DHT22;38317;53.084;6.960;2023-08-24T03:49:06;15.90;99.90
52387;DHT22;38317;53.084;6.960;2023-08-24T03:51:31;15.80;99.90
52387;DHT22;38317;53.084;6.960;2023-08-24T03:53:57;15.80;99.90
52387;DHT22;38317;53.084;6.960;2023-08-24T03:56:23;15.80;99.90
52387;DHT22;38317;53.084;6.960;2023-08-24T03:58:48;15.80;99.90
52387;DHT22;38317;53.084;6.960;2023-08-24T04:01:14;15.80;99.90
52387;DHT22;38317;53.084;6.960;2023-08-24T04:03:40;15.80;99.90
52387;DHT22;38317;53.084;6.960;2023-08-24T04:06:06;15.80;99.90
52387;DHT22;38317;53.084;6.960;2023-08-24T04:08:33;15.80;99.90
52387;DHT22;38317;53.084;6.960;2023-08-24T04:10:58;15.80;99.90
52387;DHT22;38317;53.084;6.960;2023-08-24T04:13:24;15.80;99.90
52387;DHT22;38317;53.084;6.960;2023-08-24T04:15:50;15.80;99.90
52387;DHT22;38317;53.084;6.960;2023-08-24T04:18:15;15.80;99.90
52387;DHT22;38317;53.084;6.960;2023-08-24T04:20:41;15.70;99.90
52387;DHT22;38317;53.084;6.960;2023-08-24T04:23:07;15.70;99.90
52387;DHT22;38317;53.084;6.960;2023-08-24T04:25:32;15.70;99.90
52387;DHT22;38317;53.084;6.960;2023-08-24T04:27:58;15.70;99.90
52387;DHT22;38317;53.084;6.960;2023-08-24T04:30:24;15.60;99.90
52387;DHT22;38317;53.084;6.960;2023-08-24T04:32:49;15.70;99.90
52387;DHT22;38317;53.084;6.960;2023-08-24T04:35:16;15.60;99.90
52387;DHT22;38317;53.084;6.960;2023-08-24T04:37:42;15.70;99.90
52387;DHT22;38317;53.084;6.960;2023-08-24T04:40:08;15.70;99.90
52387;DHT22;38317;53.084;6.960;2023-08-24T04:42:33;15.70;99.90
52387;DHT22;38317;53.084;6.960;2023-08-24T04:44:59;15.70;99.90
52387;DHT22;38317;53.084;6.960;2023-08-24T04:47:25;15.70;99.90
52387;DHT22;38317;53.084;6.960;2023-08-24T04:49:51;15.80;99.90
52387;DHT22;38317;53.084;6.960;2023-08-24T04:52:16;15.80;99.90
52387;DHT22;38317;53.084;6.960;2023-08-24T04:54:42;15.80;99.90
52387;DHT22;38317;53.084;6.960;2023-08-24T04:57:08;15.80;99.90
52387;DHT22;38317;53.084;6.960;2023-08-24T04:59:34;15.80;99.90
52387;DHT22;38317;53.084;6.960;2023-08-24T05:01:59;15.80;99.90
52387;DHT22;38317;53.084;6.960;2023-08-24T05:04:25;15.80;99.90
52387;DHT22;38317;53.084;6.960;2023-08-24T05:06:51;15.80;99.90
52387;DHT22;38317;53.084;6.960;2023-08-24T05:09:17;15.80;99.90
52387;DHT22;38317;53.084;6.960;2023-08-24T05:11:44;15.80;99.90
52387;DHT22;38317;53.084;6.960;2023-08-24T05:14:09;15.80;99.90
52387;DHT22;38317;53.084;6.960;2023-08-24T05:16:35;15.80;99.90
52387;DHT22;38317;53.084;6.960;2023-08-24T05:19:01;15.80;99.90
52387;DHT22;38317;53.084;6.960;2023-08-24T05:21:28;15.80;99.90
52387;DHT22;38317;53.084;6.960;2023-08-24T05:23:54;15.80;99.90
52387;DHT22;38317;53.084;6.960;2023-08-24T05:26:20;15.80;99.90
52387;DHT22;38317;53.084;6.960;2023-08-24T05:28:48;15.80;99.90
52387;DHT22;38317;53.084;6.960;2023-08-24T05:31:13;15.80;99.90
52387;DHT22;38317;53.084;6.960;2023-08-24T05:33:39;15.80;99.90
52387;DHT22;38317;53.084;6.960;2023-08-24T05:36:05;15.80;99.90
52387;DHT22;38317;53.084;6.960;2023-08-24T05:38:31;15.70;99.90
52387;DHT22;38317;53.084;6.960;2023-08-24T05:40:56;15.70;99.90
52387;DHT22;38317;53.084;6.960;2023-08-24T05:43:22;15.70;99.90
52387;DHT22;38317;53.084;6.960;2023-08-24T05:45:48;15.70;99.90
52387;DHT22;38317;53.084;6.960;2023-08-24T05:48:14;15.70;99.90
52387;DHT22;38317;53.084;6.960;2023-08-24T05:50:47;15.70;99.90
52387;DHT22;38317;53.084;6.960;2023-08-24T05:53:13;15.70;99.90
52387;DHT22;38317;53.084;6.960;2023-08-24T05:55:39;15.70;99.90
52387;DHT22;38317;53.084;6.960;2023-08-24T05:58:05;15.70;99.90
52387;DHT22;38317;53.084;6.960;2023-08-24T06:00:30;15.70;99.90
52387;DHT22;38317;53.084;6.960;2023-08-24T06:02:56;15.70;99.90
52387;DHT22;38317;53.084;6.960;2023-08-24T06:05:22;15.70;99.90
52387;DHT22;38317;53.084;6.960;2023-08-24T06:07:48;15.80;99.90
52387;DHT22;38317;53.084;6.960;2023-08-24T06:10:14;15.80;99.90
52387;DHT22;38317;53.084;6.960;2023-08-24T06:12:40;15.80;99.90
52387;DHT22;38317;53.084;6.960;2023-08-24T06:15:06;15.80;99.90
52387;DHT22;38317;53.084;6.960;2023-08-24T06:17:35;15.80;99.90
52387;DHT22;38317;53.084;6.960;2023-08-24T06:20:03;15.80;99.90
52387;DHT22;38317;53.084;6.960;2023-08-24T06:22:29;15.80;99.90
52387;DHT22;38317;53.084;6.960;2023-08-24T06:24:55;15.80;99.90
52387;DHT22;38317;53.084;6.960;2023-08-24T06:27:25;15.90;99.90
52387;DHT22;38317;53.084;6.960;2023-08-24T06:29:51;15.90;99.90
52387;DHT22;38317;53.084;6.960;2023-08-24T06:32:16;16.00;99.90
52387;DHT22;38317;53.084;6.960;2023-08-24T06:34:42;15.90;99.90
52387;DHT22;38317;53.084;6.960;2023-08-24T06:40:21;16.10;99.90
52387;DHT22;38317;53.084;6.960;2023-08-24T06:42:47;16.10;99.90
52387;DHT22;38317;53.084;6.960;2023-08-24T06:45:13;16.10;99.90
52387;DHT22;38317;53.084;6.960;2023-08-24T06:47:39;16.20;99.90
52387;DHT22;38317;53.084;6.960;2023-08-24T06:50:06;16.20;99.90
52387;DHT22;38317;53.084;6.960;2023-08-24T06:52:31;16.20;99.90
52387;DHT22;38317;53.084;6.960;2023-08-24T06:54:59;16.30;99.90
52387;DHT22;38317;53.084;6.960;2023-08-24T06:57:24;16.40;99.90
52387;DHT22;38317;53.084;6.960;2023-08-24T06:59:50;16.40;99.90
52387;DHT22;38317;53.084;6.960;2023-08-24T07:02:16;16.50;99.90
52387;DHT22;38317;53.084;6.960;2023-08-24T07:04:43;16.70;99.90
52387;DHT22;38317;53.084;6.960;2023-08-24T07:07:10;17.00;99.90
52387;DHT22;38317;53.084;6.960;2023-08-24T07:09:36;17.50;99.90
52387;DHT22;38317;53.084;6.960;2023-08-24T07:12:02;17.70;99.90
52387;DHT22;38317;53.084;6.960;2023-08-24T07:14:29;17.70;99.90
52387;DHT22;38317;53.084;6.960;2023-08-24T07:16:54;17.70;99.90
52387;DHT22;38317;53.084;6.960;2023-08-24T07:19:20;17.70;99.90
52387;DHT22;38317;53.084;6.960;2023-08-24T07:21:46;17.60;99.90
52387;DHT22;38317;53.084;6.960;2023-08-24T07:24:12;17.60;99.90
52387;DHT22;38317;53.084;6.960;2023-08-24T07:26:39;17.60;99.90
52387;DHT22;38317;53.084;6.960;2023-08-24T07:29:05;17.60;99.90
52387;DHT22;38317;53.084;6.960;2023-08-24T07:31:31;17.60;99.90
52387;DHT22;38317;53.084;6.960;2023-08-24T07:33:56;17.70;99.90
52387;DHT22;38317;53.084;6.960;2023-08-24T07:36:22;17.70;99.90
52387;DHT22;38317;53.084;6.960;2023-08-24T07:38:48;17.90;99.90
52387;DHT22;38317;53.084;6.960;2023-08-24T07:41:14;18.00;99.90
52387;DHT22;38317;53.084;6.960;2023-08-24T07:43:39;18.20;99.90
52387;DHT22;38317;53.084;6.960;2023-08-24T07:46:05;18.30;99.90
52387;DHT22;38317;53.084;6.960;2023-08-24T07:48:31;18.50;99.90
52387;DHT22;38317;53.084;6.960;2023-08-24T07:50:57;18.80;99.90
52387;DHT22;38317;53.084;6.960;2023-08-24T07:53:23;19.00;99.90
52387;DHT22;38317;53.084;6.960;2023-08-24T07:55:48;19.30;99.90
52387;DHT22;38317;53.084;6.960;2023-08-24T07:58:14;19.50;99.90
52387;DHT22;38317;53.084;6.960;2023-08-24T08:00:40;19.70;99.90
52387;DHT22;38317;53.084;6.960;2023-08-24T08:03:06;20.00;99.90
52387;DHT22;38317;53.084;6.960;2023-08-24T08:05:32;20.20;99.90
52387;DHT22;38317;53.084;6.960;2023-08-24T08:07:58;20.40;99.90
52387;DHT22;38317;53.084;6.960;2023-08-24T08:10:23;20.50;99.90
52387;DHT22;38317;53.084;6.960;2023-08-24T08:12:49;20.70;99.90
52387;DHT22;38317;53.084;6.960;2023-08-24T08:15:15;20.80;99.90
52387;DHT22;38317;53.084;6.960;2023-08-24T08:17:40;21.00;99.90
52387;DHT22;38317;53.084;6.960;2023-08-24T08:20:07;21.20;99.90
52387;DHT22;38317;53.084;6.960;2023-08-24T08:22:33;21.30;99.90
52387;DHT22;38317;53.084;6.960;2023-08-24T08:25:04;21.40;99.90
52387;DHT22;38317;53.084;6.960;2023-08-24T08:27:30;21.60;99.90
52387;DHT22;38317;53.084;6.960;2023-08-24T08:29:56;21.60;99.90
52387;DHT22;38317;53.084;6.960;2023-08-24T08:32:22;21.50;99.90
52387;DHT22;38317;53.084;6.960;2023-08-24T08:34:53;21.50;99.90
52387;DHT22;38317;53.084;6.960;2023-08-24T08:37:19;21.60;99.90
52387;DHT22;38317;53.084;6.960;2023-08-24T08:39:45;21.80;99.90
52387;DHT22;38317;53.084;6.960;2023-08-24T08:42:14;22.00;99.90
52387;DHT22;38317;53.084;6.960;2023-08-24T08:44:41;22.20;99.90
52387;DHT22;38317;53.084;6.960;2023-08-24T08:47:09;22.40;99.90
52387;DHT22;38317;53.084;6.960;2023-08-24T08:49:39;22.40;99.90
52387;DHT22;38317;53.084;6.960;2023-08-24T08:52:07;22.50;99.90
52387;DHT22;38317;53.084;6.960;2023-08-24T08:54:32;22.70;99.90
52387;DHT22;38317;53.084;6.960;2023-08-24T08:56:59;22.70;99.90
52387;DHT22;38317;53.084;6.960;2023-08-24T08:59:30;22.90;99.90
52387;DHT22;38317;53.084;6.960;2023-08-24T09:02:01;22.90;99.90
52387;DHT22;38317;53.084;6.960;2023-08-24T09:04:32;23.00;99.90
52387;DHT22;38317;53.084;6.960;2023-08-24T09:06:59;23.10;99.90
52387;DHT22;38317;53.084;6.960;2023-08-24T09:09:29;23.20;99.90
52387;DHT22;38317;53.084;6.960;2023-08-24T09:11:55;23.30;99.90
52387;DHT22;38317;53.084;6.960;2023-08-24T09:14:21;23.30;99.90
52387;DHT22;38317;53.084;6.960;2023-08-24T09:16:47;23.30;99.90
52387;DHT22;38317;53.084;6.960;2023-08-24T09:19:13;23.30;99.90
52387;DHT22;38317;53.084;6.960;2023-08-24T09:21:40;23.30;99.90
52387;DHT22;38317;53.084;6.960;2023-08-24T09:24:08;23.30;99.90
52387;DHT22;38317;53.084;6.960;2023-08-24T09:26:35;23.40;99.90
52387;DHT22;38317;53.084;6.960;2023-08-24T09:29:12;23.50;99.90
52387;DHT22;38317;53.084;6.960;2023-08-24T09:31:41;23.50;99.90
52387;DHT22;38317;53.084;6.960;2023-08-24T09:34:10;23.60;99.90
52387;DHT22;38317;53.084;6.960;2023-08-24T09:36:37;23.50;99.90
52387;DHT22;38317;53.084;6.960;2023-08-24T09:39:04;23.50;99.90
52387;DHT22;38317;53.084;6.960;2023-08-24T09:41:41;23.40;99.90
52387;DHT22;38317;53.084;6.960;2023-08-24T09:44:08;23.30;99.90
52387;DHT22;38317;53.084;6.960;2023-08-24T09:46:35;23.20;99.90
52387;DHT22;38317;53.084;6.960;2023-08-24T09:49:07;23.10;99.90
52387;DHT22;38317;53.084;6.960;2023-08-24T09:51:34;23.00;99.90
52387;DHT22;38317;53.084;6.960;2023-08-24T09:54:06;23.00;99.90
52387;DHT22;38317;53.084;6.960;2023-08-24T09:56:38;22.90;99.90
52387;DHT22;38317;53.084;6.960;2023-08-24T10:01:37;22.90;99.90
52387;DHT22;38317;53.084;6.960;2023-08-24T10:04:05;22.80;99.90
52387;DHT22;38317;53.084;6.960;2023-08-24T10:06:36;22.80;99.90
52387;DHT22;38317;53.084;6.960;2023-08-24T10:09:06;22.70;99.90
52387;DHT22;38317;53.084;6.960;2023-08-24T10:11:36;22.70;99.90
52387;DHT22;38317;53.084;6.960;2023-08-24T10:14:08;22.60;99.90
52387;DHT22;38317;53.084;6.960;2023-08-24T10:16:36;22.60;99.90
52387;DHT22;38317;53.084;6.960;2023-08-24T10:19:03;22.60;99.90
52387;DHT22;38317;53.084;6.960;2023-08-24T10:21:30;22.60;99.90
52387;DHT22;38317;53.084;6.960;2023-08-24T10:23:57;22.50;99.90
52387;DHT22;38317;53.084;6.960;2023-08-24T10:26:26;22.50;99.90
52387;DHT22;38317;53.084;6.960;2023-08-24T10:28:52;22.50;99.90
52387;DHT22;38317;53.084;6.960;2023-08-24T10:31:19;22.50;99.90
52387;DHT22;38317;53.084;6.960;2023-08-24T10:33:46;22.40;99.90
52387;DHT22;38317;53.084;6.960;2023-08-24T10:36:13;22.40;99.90
52387;DHT22;38317;53.084;6.960;2023-08-24T10:38:41;22.40;99.90
52387;DHT22;38317;53.084;6.960;2023-08-24T10:41:12;22.40;99.90
52387;DHT22;38317;53.084;6.960;2023-08-24T10:43:40;22.40;99.90
52387;DHT22;38317;53.084;6.960;2023-08-24T10:46:14;22.40;99.90
52387;DHT22;38317;53.084;6.960;2023-08-24T10:53:44;22.40;99.90
52387;DHT22;38317;53.084;6.960;2023-08-24T10:56:11;22.40;99.90
52387;DHT22;38317;53.084;6.960;2023-08-24T10:58:40;22.40;99.90
52387;DHT22;38317;53.084;6.960;2023-08-24T11:01:06;22.40;99.90
52387;DHT22;38317;53.084;6.960;2023-08-24T11:03:35;22.40;99.90
52387;DHT22;38317;53.084;6.960;2023-08-24T11:06:01;22.40;99.90
52387;DHT22;38317;53.084;6.960;2023-08-24T11:08:47;22.30;99.90
52387;DHT22;38317;53.084;6.960;2023-08-24T11:11:20;22.50;99.90
52387;DHT22;38317;53.084;6.960;2023-08-24T11:14:17;22.60;99.90
52387;DHT22;38317;53.084;6.960;2023-08-24T11:16:46;22.60;99.90
52387;DHT22;38317;53.084;6.960;2023-08-24T11:19:13;22.70;99.90
52387;DHT22;38317;53.084;6.960;2023-08-24T11:21:40;22.80;99.90
52387;DHT22;38317;53.084;6.960;2023-08-24T11:24:06;22.90;99.90
52387;DHT22;38317;53.084;6.960;2023-08-24T11:26:34;23.10;99.90
52387;DHT22;38317;53.084;6.960;2023-08-24T11:29:00;23.20;99.90
52387;DHT22;38317;53.084;6.960;2023-08-24T11:31:26;23.30;99.90
52387;DHT22;38317;53.084;6.960;2023-08-24T11:33:56;23.40;99.90
52387;DHT22;38317;53.084;6.960;2023-08-24T11:36:22;23.50;99.90
52387;DHT22;38317;53.084;6.960;2023-08-24T11:38:56;23.60;99.90
52387;DHT22;38317;53.084;6.960;2023-08-24T11:41:23;23.80;99.90
52387;DHT22;38317;53.084;6.960;2023-08-24T11:43:49;23.80;99.90
52387;DHT22;38317;53.084;6.960;2023-08-24T11:46:23;23.90;99.90
52387;DHT22;38317;53.084;6.960;2023-08-24T11:48:49;24.00;99.90
52387;DHT22;38317;53.084;6.960;2023-08-24T11:51:15;24.00;99.90
52387;DHT22;38317;53.084;6.960;2023-08-24T11:53:43;24.00;99.90
52387;DHT22;38317;53.084;6.960;2023-08-24T11:56:09;24.00;99.90
52387;DHT22;38317;53.084;6.960;2023-08-24T11:58:42;24.00;99.90
52387;DHT22;38317;53.084;6.960;2023-08-24T12:01:09;24.00;99.90
52387;DHT22;38317;53.084;6.960;2023-08-24T12:03:36;24.00;99.90
52387;DHT22;38317;53.084;6.960;2023-08-24T12:06:02;24.00;99.90
52387;DHT22;38317;53.084;6.960;2023-08-24T12:08:38;24.20;99.90
52387;DHT22;38317;53.084;6.960;2023-08-24T12:11:13;24.20;99.90
52387;DHT22;38317;53.084;6.960;2023-08-24T12:13:49;24.30;99.90
52387;DHT22;38317;53.084;6.960;2023-08-24T12:16:16;24.30;99.90
52387;DHT22;38317;53.084;6.960;2023-08-24T12:18:55;24.30;99.90
52387;DHT22;38317;53.084;6.960;2023-08-24T12:21:22;24.30;99.90
52387;DHT22;38317;53.084;6.960;2023-08-24T12:23:59;24.20;99.90
52387;DHT22;38317;53.084;6.960;2023-08-24T12:26:26;24.20;99.90
52387;DHT22;38317;53.084;6.960;2023-08-24T12:28:53;24.10;99.90
52387;DHT22;38317;53.084;6.960;2023-08-24T12:31:19;24.00;99.90
52387;DHT22;38317;53.084;6.960;2023-08-24T12:33:45;23.90;99.90
52387;DHT22;38317;53.084;6.960;2023-08-24T12:36:12;23.80;99.90
52387;DHT22;38317;53.084;6.960;2023-08-24T12:38:37;23.80;99.90
52387;DHT22;38317;53.084;6.960;2023-08-24T12:41:04;23.70;99.90
52387;DHT22;38317;53.084;6.960;2023-08-24T12:43:30;23.70;99.90
52387;DHT22;38317;53.084;6.960;2023-08-24T12:45:55;23.60;99.90
52387;DHT22;38317;53.084;6.960;2023-08-24T12:48:21;23.60;99.90
52387;DHT22;38317;53.084;6.960;2023-08-24T12:50:47;23.50;99.90
52387;DHT22;38317;53.084;6.960;2023-08-24T12:53:13;23.50;99.90
52387;DHT22;38317;53.084;6.960;2023-08-24T12:55:39;23.50;99.90
52387;DHT22;38317;53.084;6.960;2023-08-24T12:58:08;23.40;99.90
52387;DHT22;38317;53.084;6.960;2023-08-24T13:00:36;23.50;99.90
52387;DHT22;38317;53.084;6.960;2023-08-24T13:03:02;23.50;99.90
52387;DHT22;38317;53.084;6.960;2023-08-24T13:05:28;23.40;99.90
52387;DHT22;38317;53.084;6.960;2023-08-24T13:07:54;23.50;99.90
52387;DHT22;38317;53.084;6.960;2023-08-24T13:10:20;23.50;99.90
52387;DHT22;38317;53.084;6.960;2023-08-24T13:12:46;23.50;99.90
52387;DHT22;38317;53.084;6.960;2023-08-24T13:15:12;23.60;99.90
52387;DHT22;38317;53.084;6.960;2023-08-24T13:17:37;23.60;99.90
52387;DHT22;38317;53.084;6.960;2023-08-24T13:20:05;23.70;99.90
52387;DHT22;38317;53.084;6.960;2023-08-24T13:22:31;23.80;99.90
52387;DHT22;38317;53.084;6.960;2023-08-24T13:24:57;23.70;99.90
52387;DHT22;38317;53.084;6.960;2023-08-24T13:27:23;23.80;99.90
52387;DHT22;38317;53.084;6.960;2023-08-24T13:29:49;23.80;99.90
52387;DHT22;38317;53.084;6.960;2023-08-24T13:32:15;23.80;99.90
52387;DHT22;38317;53.084;6.960;2023-08-24T13:34:40;23.80;99.90
52387;DHT22;38317;53.084;6.960;2023-08-24T13:37:06;23.80;99.90
52387;DHT22;38317;53.084;6.960;2023-08-24T13:39:32;23.80;99.90
52387;DHT22;38317;53.084;6.960;2023-08-24T13:41:58;23.80;99.90
52387;DHT22;38317;53.084;6.960;2023-08-24T13:44:24;23.90;99.90
52387;DHT22;38317;53.084;6.960;2023-08-24T13:47:09;23.80;99.90
52387;DHT22;38317;53.084;6.960;2023-08-24T13:49:34;23.80;99.90
52387;DHT22;38317;53.084;6.960;2023-08-24T13:52:00;23.80;99.90
52387;DHT22;38317;53.084;6.960;2023-08-24T13:54:26;23.80;99.90
52387;DHT22;38317;53.084;6.960;2023-08-24T13:56:52;23.70;99.90
52387;DHT22;38317;53.084;6.960;2023-08-24T13:59:19;23.60;99.90
52387;DHT22;38317;53.084;6.960;2023-08-24T14:01:45;23.60;99.90
52387;DHT22;38317;53.084;6.960;2023-08-24T14:04:11;23.60;99.90
52387;DHT22;38317;53.084;6.960;2023-08-24T14:06:37;23.60;99.90
52387;DHT22;38317;53.084;6.960;2023-08-24T14:09:03;23.70;99.90
52387;DHT22;38317;53.084;6.960;2023-08-24T14:11:32;23.70;99.90
52387;DHT22;38317;53.084;6.960;2023-08-24T14:13:59;23.70;99.90
52387;DHT22;38317;53.084;6.960;2023-08-24T14:16:25;23.70;99.90
52387;DHT22;38317;53.084;6.960;2023-08-24T14:18:52;23.70;99.90
52387;DHT22;38317;53.084;6.960;2023-08-24T14:21:18;23.60;99.90
52387;DHT22;38317;53.084;6.960;2023-08-24T14:23:49;23.60;99.90
52387;DHT22;38317;53.084;6.960;2023-08-24T14:26:15;23.60;99.90
52387;DHT22;38317;53.084;6.960;2023-08-24T14:28:49;23.50;99.90
52387;DHT22;38317;53.084;6.960;2023-08-24T14:31:21;23.40;99.90
52387;DHT22;38317;53.084;6.960;2023-08-24T14:33:47;23.40;99.90
52387;DHT22;38317;53.084;6.960;2023-08-24T14:36:13;23.40;99.90
52387;DHT22;38317;53.084;6.960;2023-08-24T14:38:39;23.30;99.90
52387;DHT22;38317;53.084;6.960;2023-08-24T14:41:06;23.30;99.90
52387;DHT22;38317;53.084;6.960;2023-08-24T14:43:33;23.20;99.90
52387;DHT22;38317;53.084;6.960;2023-08-24T14:45:59;23.20;99.90
52387;DHT22;38317;53.084;6.960;2023-08-24T14:48:24;23.20;99.90
52387;DHT22;38317;53.084;6.960;2023-08-24T14:50:51;23.20;99.90
52387;DHT22;38317;53.084;6.960;2023-08-24T14:53:16;23.10;99.90
52387;DHT22;38317;53.084;6.960;2023-08-24T14:55:42;23.00;99.90
52387;DHT22;38317;53.084;6.960;2023-08-24T14:58:08;22.90;99.90
52387;DHT22;38317;53.084;6.960;2023-08-24T15:00:34;22.90;99.90
52387;DHT22;38317;53.084;6.960;2023-08-24T15:03:00;22.80;99.90
52387;DHT22;38317;53.084;6.960;2023-08-24T15:05:26;22.70;99.90
52387;DHT22;38317;53.084;6.960;2023-08-24T15:07:51;22.60;99.90
52387;DHT22;38317;53.084;6.960;2023-08-24T15:10:18;22.60;99.90
52387;DHT22;38317;53.084;6.960;2023-08-24T15:12:47;22.60;99.90
52387;DHT22;38317;53.084;6.960;2023-08-24T15:15:13;22.50;99.90
52387;DHT22;38317;53.084;6.960;2023-08-24T15:17:43;22.50;99.90
52387;DHT22;38317;53.084;6.960;2023-08-24T15:20:13;22.50;99.90
52387;DHT22;38317;53.084;6.960;2023-08-24T15:22:39;22.40;99.90
52387;DHT22;38317;53.084;6.960;2023-08-24T15:25:06;22.40;99.90
52387;DHT22;38317;53.084;6.960;2023-08-24T15:27:33;22.40;99.90
52387;DHT22;38317;53.084;6.960;2023-08-24T15:29:58;22.30;99.90
52387;DHT22;38317;53.084;6.960;2023-08-24T15:32:26;22.40;99.90
52387;DHT22;38317;53.084;6.960;2023-08-24T15:34:52;22.40;99.90
52387;DHT22;38317;53.084;6.960;2023-08-24T15:37:19;22.30;99.90
52387;DHT22;38317;53.084;6.960;2023-08-24T15:39:45;22.30;99.90
52387;DHT22;38317;53.084;6.960;2023-08-24T15:45:33;22.30;99.90
52387;DHT22;38317;53.084;6.960;2023-08-24T15:48:00;22.30;99.90
52387;DHT22;38317;53.084;6.960;2023-08-24T15:50:26;22.30;99.90
52387;DHT22;38317;53.084;6.960;2023-08-24T15:52:52;22.30;99.90
52387;DHT22;38317;53.084;6.960;2023-08-24T15:55:27;22.30;99.90
52387;DHT22;38317;53.084;6.960;2023-08-24T15:57:53;22.20;99.90
52387;DHT22;38317;53.084;6.960;2023-08-24T16:00:19;22.20;99.90
52387;DHT22;38317;53.084;6.960;2023-08-24T16:02:45;22.20;99.90
52387;DHT22;38317;53.084;6.960;2023-08-24T16:05:10;22.10;99.90
52387;DHT22;38317;53.084;6.960;2023-08-24T16:07:36;22.10;99.90
52387;DHT22;38317;53.084;6.960;2023-08-24T16:10:02;22.10;99.90
52387;DHT22;38317;53.084;6.960;2023-08-24T16:12:30;22.10;99.90
52387;DHT22;38317;53.084;6.960;2023-08-24T16:14:56;22.10;99.90
52387;DHT22;38317;53.084;6.960;2023-08-24T16:17:22;22.10;99.90
52387;DHT22;38317;53.084;6.960;2023-08-24T16:19:48;22.10;99.90
52387;DHT22;38317;53.084;6.960;2023-08-24T16:22:14;22.10;99.90
52387;DHT22;38317;53.084;6.960;2023-08-24T16:24:39;22.00;99.90
52387;DHT22;38317;53.084;6.960;2023-08-24T16:27:05;22.00;99.90
52387;DHT22;38317;53.084;6.960;2023-08-24T16:29:31;22.00;99.90
52387;DHT22;38317;53.084;6.960;2023-08-24T16:31:56;22.00;99.90
52387;DHT22;38317;53.084;6.960;2023-08-24T16:34:22;22.10;99.90
52387;DHT22;38317;53.084;6.960;2023-08-24T16:36:48;22.10;99.90
52387;DHT22;38317;53.084;6.960;2023-08-24T16:39:14;22.10;99.90
52387;DHT22;38317;53.084;6.960;2023-08-24T16:41:40;22.10;99.90
52387;DHT22;38317;53.084;6.960;2023-08-24T16:44:06;22.10;99.90
52387;DHT22;38317;53.084;6.960;2023-08-24T16:46:31;22.20;99.90
52387;DHT22;38317;53.084;6.960;2023-08-24T16:48:57;22.10;99.90
52387;DHT22;38317;53.084;6.960;2023-08-24T16:51:23;22.20;99.90
52387;DHT22;38317;53.084;6.960;2023-08-24T16:53:50;22.20;99.90
52387;DHT22;38317;53.084;6.960;2023-08-24T16:56:15;22.20;99.90
52387;DHT22;38317;53.084;6.960;2023-08-24T16:58:41;22.20;99.90
52387;DHT22;38317;53.084;6.960;2023-08-24T17:01:08;22.20;99.90
52387;DHT22;38317;53.084;6.960;2023-08-24T17:03:34;22.20;99.90
52387;DHT22;38317;53.084;6.960;2023-08-24T17:06:00;22.20;99.90
52387;DHT22;38317;53.084;6.960;2023-08-24T17:08:26;22.20;99.90
52387;DHT22;38317;53.084;6.960;2023-08-24T17:10:52;22.20;99.90
52387;DHT22;38317;53.084;6.960;2023-08-24T17:13:18;22.20;99.90
52387;DHT22;38317;53.084;6.960;2023-08-24T17:15:48;22.20;99.90
52387;DHT22;38317;53.084;6.960;2023-08-24T17:18:14;22.10;99.90
52387;DHT22;38317;53.084;6.960;2023-08-24T17:20:40;22.10;99.90
52387;DHT22;38317;53.084;6.960;2023-08-24T17:23:06;22.10;99.90
52387;DHT22;38317;53.084;6.960;2023-08-24T17:25:32;22.10;99.90
52387;DHT22;38317;53.084;6.960;2023-08-24T17:27:57;22.00;99.90
52387;DHT22;38317;53.084;6.960;2023-08-24T17:30:23;22.00;99.90
52387;DHT22;38317;53.084;6.960;2023-08-24T17:32:49;22.00;99.90
52387;DHT22;38317;53.084;6.960;2023-08-24T17:35:15;21.90;99.90
52387;DHT22;38317;53.084;6.960;2023-08-24T17:37:41;21.90;99.90
52387;DHT22;38317;53.084;6.960;2023-08-24T17:40:08;21.90;99.90
52387;DHT22;38317;53.084;6.960;2023-08-24T17:42:37;21.90;99.90
52387;DHT22;38317;53.084;6.960;2023-08-24T17:45:05;21.90;99.90
52387;DHT22;38317;53.084;6.960;2023-08-24T17:47:31;21.90;99.90
52387;DHT22;38317;53.084;6.960;2023-08-24T17:49:57;21.80;99.90
52387;DHT22;38317;53.084;6.960;2023-08-24T17:52:23;21.80;99.90
52387;DHT22;38317;53.084;6.960;2023-08-24T17:54:49;21.80;99.90
52387;DHT22;38317;53.084;6.960;2023-08-24T17:57:14;21.80;99.90
52387;DHT22;38317;53.084;6.960;2023-08-24T17:59:40;21.80;99.90
52387;DHT22;38317;53.084;6.960;2023-08-24T18:02:06;21.80;99.90
52387;DHT22;38317;53.084;6.960;2023-08-24T18:04:32;21.80;99.90
52387;DHT22;38317;53.084;6.960;2023-08-24T18:06:58;21.70;99.90
52387;DHT22;38317;53.084;6.960;2023-08-24T18:09:23;21.80;99.90
52387;DHT22;38317;53.084;6.960;2023-08-24T18:11:49;21.70;99.90
52387;DHT22;38317;53.084;6.960;2023-08-24T18:14:16;21.70;99.90
52387;DHT22;38317;53.084;6.960;2023-08-24T18:16:42;21.70;99.90
52387;DHT22;38317;53.084;6.960;2023-08-24T18:19:08;21.70;99.90
52387;DHT22;38317;53.084;6.960;2023-08-24T18:21:34;21.60;99.90
52387;DHT22;38317;53.084;6.960;2023-08-24T18:23:59;21.60;99.90